Time;durP1;ratioP1;P1;durP2;ratioP2;P2;SDS_P1;SDS_P2;PMS_P1;PMS_P2;Temp;Humidity;BMP_temperature;BMP_pressure;BME280_temperature;BME280_humidity;BME280_pressure;Samples;Min_cycle;Max_cycle;Signal;HPM_P1;HPM_P2
2023/04/29 00:00:32;;;;;;;18.77;8.60;;;8.40;1.00;;;;;;10517970;28;20242;-80
2023/04/29 00:05:53;;;;;;;17.13;7.77;;;8.40;1.00;;;;;;10481942;28;20244;-80
2023/04/29 00:11:15;;;;;;;16.03;7.63;;;8.40;1.00;;;;;;10513350;28;20200;-80
2023/04/29 00:16:36;;;;;;;14.47;7.27;;;8.40;1.00;;;;;;10474626;28;20231;-80
2023/04/29 00:21:58;;;;;;;12.90;7.27;;;8.40;1.00;;;;;;10469855;28;20225;-80
2023/04/29 00:27:19;;;;;;;10.50;6.30;;;8.40;1.00;;;;;;10534071;28;20373;-80
2023/04/29 00:32:40;;;;;;;12.80;6.80;;;8.40;1.00;;;;;;10497205;28;20193;-80
2023/04/29 00:38:02;;;;;;;13.40;7.03;;;8.30;1.00;;;;;;10490944;28;20451;-80
2023/04/29 00:43:23;;;;;;;9.67;6.63;;;8.20;1.00;;;;;;10509003;28;20345;-80
2023/04/29 00:48:44;;;;;;;13.13;7.90;;;8.20;1.00;;;;;;10502120;28;20212;-80
2023/04/29 00:54:06;;;;;;;16.20;7.67;;;8.10;1.00;;;;;;10468370;28;20421;-80
2023/04/29 00:59:32;;;;;;;16.47;7.57;;;8.10;1.00;;;;;;10473682;28;20248;-80
2023/04/29 01:04:53;;;;;;;16.23;7.20;;;8.10;1.00;;;;;;10490155;28;20206;-80
2023/04/29 01:10:28;;;;;;;13.30;8.70;;;8.10;1.00;;;;;;10523131;28;20192;-80
2023/04/29 01:15:57;;;;;;;15.20;8.10;;;8.00;1.00;;;;;;10497672;28;20281;-80
2023/04/29 01:21:19;;;;;;;14.53;8.63;;;8.00;1.00;;;;;;10467233;28;20264;-80
2023/04/29 01:26:49;;;;;;;14.27;7.70;;;8.10;1.00;;;;;;10491906;28;20192;-80
2023/04/29 01:32:58;;;;;;;19.23;8.77;;;8.10;1.00;;;;;;10489204;28;20205;-80
2023/04/29 01:38:29;;;;;;;11.60;6.67;;;8.20;1.00;;;;;;10533734;28;20572;-80
2023/04/29 01:43:52;;;;;;;15.10;8.00;;;8.20;1.00;;;;;;10488870;28;20217;-80
2023/04/29 01:49:36;;;;;;;12.87;7.70;;;8.20;1.00;;;;;;10480511;28;20200;-80
2023/04/29 01:54:59;;;;;;;12.93;7.80;;;8.20;1.00;;;;;;10470263;28;20204;-79
2023/04/29 02:00:30;;;;;;;10.97;7.33;;;8.30;1.00;;;;;;10481725;28;20235;-80
2023/04/29 02:05:52;;;;;;;13.67;8.10;;;8.30;1.00;;;;;;10519391;28;20197;-80
2023/04/29 02:11:13;;;;;;;13.67;7.83;;;8.40;1.00;;;;;;10507158;28;20274;-80
2023/04/29 02:16:35;;;;;;;12.47;7.40;;;8.40;1.00;;;;;;10494411;28;20208;-80
2023/04/29 02:22:00;;;;;;;10.90;6.60;;;8.50;1.00;;;;;;10463695;28;20279;-79
2023/04/29 02:27:21;;;;;;;15.63;7.37;;;8.50;1.00;;;;;;10481487;28;20222;-79
2023/04/29 02:32:42;;;;;;;12.80;8.33;;;8.50;1.00;;;;;;10478573;28;20204;-79
2023/04/29 02:38:07;;;;;;;11.63;7.37;;;8.60;1.00;;;;;;10517942;28;20242;-79
2023/04/29 02:43:30;;;;;;;11.23;7.57;;;8.50;1.00;;;;;;10492060;28;20378;-79
2023/04/29 02:48:52;;;;;;;13.27;7.87;;;8.50;1.00;;;;;;10484046;28;20217;-80
2023/04/29 02:54:13;;;;;;;13.47;8.20;;;8.50;1.00;;;;;;10478147;28;20445;-80
2023/04/29 02:59:34;;;;;;;13.07;8.07;;;8.50;1.00;;;;;;10463675;28;20231;-81
2023/04/29 03:04:56;;;;;;;10.90;8.17;;;8.50;1.00;;;;;;10485267;28;20554;-80
2023/04/29 03:10:17;;;;;;;11.60;7.47;;;8.50;1.00;;;;;;10506370;28;20199;-80
2023/04/29 03:15:39;;;;;;;13.97;7.07;;;8.50;1.00;;;;;;10500323;28;20529;-80
2023/04/29 03:21:03;;;;;;;12.50;8.23;;;8.50;1.00;;;;;;10462914;28;20225;-80
2023/04/29 03:26:24;;;;;;;13.90;7.87;;;8.50;1.00;;;;;;10490089;28;20282;-81
2023/04/29 03:31:45;;;;;;;15.20;7.90;;;8.40;1.00;;;;;;10503900;28;20202;-80
2023/04/29 03:37:07;;;;;;;13.83;8.30;;;8.50;1.00;;;;;;10500966;28;20242;-80
2023/04/29 03:42:31;;;;;;;13.57;7.07;;;8.40;1.00;;;;;;10462695;28;20229;-81
2023/04/29 03:47:53;;;;;;;14.37;8.70;;;8.40;8.40;;;;;;10462311;28;20392;-80
2023/04/29 03:53:15;;;;;;;15.93;9.00;;;8.40;7.50;;;;;;10465301;28;20354;-81
2023/04/29 03:58:37;;;;;;;17.67;9.70;;;8.40;75.40;;;;;;10475943;28;20250;-80
2023/04/29 04:03:58;;;;;;;14.73;9.03;;;8.40;1.00;;;;;;10475899;28;20255;-80
2023/04/29 04:09:20;;;;;;;13.03;8.27;;;8.40;1.00;;;;;;10486018;28;20207;-80
2023/04/29 04:14:41;;;;;;;16.13;8.37;;;8.40;1.00;;;;;;10476068;28;20219;-80
2023/04/29 04:20:04;;;;;;;11.80;7.87;;;8.40;1.00;;;;;;10531319;28;20590;-80
2023/04/29 04:25:25;;;;;;;16.37;9.03;;;8.50;1.00;;;;;;10498349;28;20205;-81
2023/04/29 04:30:51;;;;;;;14.57;9.03;;;8.50;1.00;;;;;;10502696;28;20488;-80
2023/04/29 04:36:13;;;;;;;23.47;9.53;;;8.50;1.00;;;;;;10502797;28;20200;-80
2023/04/29 04:41:34;;;;;;;12.20;8.90;;;8.60;1.00;;;;;;10447533;28;20281;-81
2023/04/29 04:46:57;;;;;;;14.23;9.10;;;8.60;1.00;;;;;;10478940;28;20522;-81
2023/04/29 04:52:37;;;;;;;14.90;9.00;;;8.70;1.00;;;;;;10479358;28;20212;-80
2023/04/29 04:58:33;;;;;;;13.23;8.70;;;8.70;1.00;;;;;;10524173;28;20491;-81
2023/04/29 05:03:54;;;;;;;19.67;8.77;;;8.80;1.00;;;;;;10524074;28;20202;-80
2023/04/29 05:09:16;;;;;;;22.43;9.63;;;8.80;1.00;;;;;;10480956;28;20196;-81
2023/04/29 05:14:38;;;;;;;20.67;11.00;;;8.90;1.00;;;;;;10467844;28;20404;-80
2023/04/29 05:20:01;;;;;;;13.80;9.57;;;8.90;1.00;;;;;;10481660;28;20226;-81
2023/04/29 05:25:25;;;;;;;17.93;10.50;;;8.90;1.00;;;;;;10484790;28;20250;-81
2023/04/29 05:30:51;;;;;;;16.20;10.50;;;9.00;1.00;;;;;;10528028;28;20215;-80
2023/04/29 05:36:13;;;;;;;16.43;9.77;;;9.10;1.00;;;;;;10504641;28;21198;-80
2023/04/29 05:41:34;;;;;;;15.23;10.87;;;9.30;1.00;;;;;;10466577;28;20245;-81
2023/04/29 05:47:18;;;;;;;21.30;12.40;;;9.40;1.00;;;;;;10480563;28;20204;-81
2023/04/29 05:52:39;;;;;;;18.47;11.07;;;9.60;1.00;;;;;;10469589;28;20374;-81
2023/04/29 05:58:02;;;;;;;20.53;11.47;;;9.60;1.00;;;;;;10494590;28;20191;-81
2023/04/29 06:03:23;;;;;;;18.13;10.40;;;9.60;1.00;;;;;;10475166;28;20441;-81
2023/04/29 06:08:54;;;;;;;20.53;11.27;;;9.60;1.00;;;;;;10473895;28;20207;-81
2023/04/29 06:14:19;;;;;;;22.67;12.27;;;9.50;1.00;;;;;;10466152;28;20205;-80
2023/04/29 06:19:40;;;;;;;15.73;9.90;;;9.50;1.00;;;;;;10498316;28;20225;-81
2023/04/29 06:25:03;;;;;;;16.53;11.20;;;9.60;1.00;;;;;;10489704;28;20500;-81
2023/04/29 06:30:37;;;;;;;16.73;10.87;;;9.70;1.00;;;;;;10508285;28;20200;-81
2023/04/29 06:35:58;;;;;;;20.27;12.37;;;9.80;1.00;;;;;;10524047;28;20302;-80
2023/04/29 06:41:39;;;;;;;18.00;11.27;;;10.00;1.00;;;;;;10512293;28;20489;-81
2023/04/29 06:47:36;;;;;;;13.87;10.47;;;10.10;1.00;;;;;;10434337;28;20206;-81
2023/04/29 06:53:03;;;;;;;15.90;10.93;;;10.40;1.00;;;;;;10419543;28;20242;-81
2023/04/29 06:58:24;;;;;;;23.03;12.70;;;10.40;1.00;;;;;;10419946;28;20207;-80
2023/04/29 07:03:45;;;;;;;14.50;10.93;;;10.50;1.00;;;;;;10433547;28;20471;-81
2023/04/29 07:09:07;;;;;;;19.50;11.43;;;10.60;1.00;;;;;;10416983;28;20222;-81
2023/04/29 07:14:29;;;;;;;20.63;11.50;;;10.60;1.00;;;;;;10416846;28;20206;-81
2023/04/29 07:19:52;;;;;;;17.50;12.20;;;10.70;1.00;;;;;;10457252;28;20237;-81
2023/04/29 07:25:13;;;;;;;20.43;12.27;;;10.60;1.00;;;;;;10479718;28;20371;-81
2023/04/29 07:30:35;;;;;;;17.03;12.20;;;10.50;1.00;;;;;;10504016;28;20208;-81
2023/04/29 07:35:57;;;;;;;24.40;13.50;;;10.50;1.00;;;;;;10503393;28;20407;-81
2023/04/29 07:41:18;;;;;;;23.47;13.47;;;10.60;1.00;;;;;;10478648;28;20241;-81
2023/04/29 07:46:39;;;;;;;24.63;12.83;;;10.80;1.00;;;;;;10529531;28;20227;-80
2023/04/29 07:52:01;;;;;;;20.43;13.23;;;11.00;1.00;;;;;;10497466;28;20206;-81
2023/04/29 07:57:22;;;;;;;27.27;15.20;;;11.10;1.00;;;;;;10480046;28;20195;-81
2023/04/29 08:02:44;;;;;;;22.25;13.13;;;11.80;1.00;;;;;;10499625;28;20460;-81
2023/04/29 08:08:07;;;;;;;21.42;13.05;;;12.40;1.00;;;;;;10461530;28;20241;-81
2023/04/29 08:13:28;;;;;;;23.13;14.15;;;12.70;1.00;;;;;;10451446;28;20226;-81
2023/04/29 08:18:50;;;;;;;24.55;14.32;;;13.00;1.00;;;;;;10479132;28;20234;-81
2023/04/29 08:24:11;;;;;;;24.70;13.80;;;13.10;1.00;;;;;;10529707;28;20192;-81
2023/04/29 08:29:33;;;;;;;24.42;14.30;;;13.30;1.00;;;;;;10471325;28;20206;-81
2023/04/29 08:34:55;;;;;;;18.83;12.55;;;13.80;1.00;;;;;;10455628;28;20204;-81
2023/04/29 08:40:16;;;;;;;23.88;13.88;;;14.30;1.00;;;;;;10454921;28;20268;-81
2023/04/29 08:45:39;;;;;;;15.90;11.15;;;14.30;1.00;;;;;;10503322;28;20220;-81
2023/04/29 08:51:01;;;;;;;18.45;12.88;;;14.70;1.00;;;;;;10495522;28;20435;-82
2023/04/29 08:56:22;;;;;;;22.83;13.32;;;15.00;1.00;;;;;;10509701;28;20198;-82
2023/04/29 09:01:49;;;;;;;19.90;13.13;;;15.00;1.00;;;;;;10468666;28;20251;-81
2023/04/29 09:07:12;;;;;;;24.30;14.10;;;14.70;1.00;;;;;;10500179;28;20207;-81
2023/04/29 09:12:33;;;;;;;19.83;13.05;;;14.70;1.00;;;;;;10501070;28;20221;-82
2023/04/29 09:17:54;;;;;;;18.90;13.13;;;14.70;1.00;;;;;;10481736;28;20195;-81
2023/04/29 09:23:16;;;;;;;20.08;14.35;;;14.50;1.00;;;;;;10467274;28;20248;-81
2023/04/29 09:28:39;;;;;;;25.48;15.00;;;14.50;1.00;;;;;;10530397;28;20203;-81
2023/04/29 09:34:01;;;;;;;18.45;13.13;;;14.90;1.00;;;;;;10507804;28;20203;-81
2023/04/29 09:39:22;;;;;;;21.48;14.13;;;15.60;1.00;;;;;;10496578;28;20245;-81
2023/04/29 09:44:44;;;;;;;22.60;12.65;;;15.60;1.00;;;;;;10489080;28;20194;-80
2023/04/29 09:50:12;;;;;;;18.17;13.07;;;15.50;1.00;;;;;;10465137;28;20232;-80
2023/04/29 09:55:52;;;;;;;20.63;13.30;;;15.20;1.00;;;;;;10452216;28;20208;-80
2023/04/29 10:01:16;;;;;;;18.30;12.20;;;14.60;1.00;;;;;;10465710;28;20245;-81
2023/04/29 10:06:41;;;;;;;23.65;14.20;;;14.50;1.00;;;;;;10489326;28;20505;-80
2023/04/29 10:12:04;;;;;;;23.50;12.68;;;14.40;1.00;;;;;;10474238;28;20193;-81
2023/04/29 10:17:39;;;;;;;24.33;14.15;;;14.20;1.00;;;;;;10501644;28;20200;-80
2023/04/29 10:23:01;;;;;;;21.20;13.90;;;14.20;1.00;;;;;;10494266;28;20233;-81
2023/04/29 10:28:24;;;;;;;20.20;13.73;;;14.30;1.00;;;;;;10520399;28;20204;-81
2023/04/29 10:33:46;;;;;;;23.40;14.45;;;14.60;1.00;;;;;;10490181;28;20227;-81
2023/04/29 10:39:15;;;;;;;20.17;13.75;;;14.70;1.00;;;;;;10493112;28;20255;-81
2023/04/29 10:45:15;;;;;;;25.95;14.57;;;15.00;1.00;;;;;;10470959;28;20204;-81
2023/04/29 10:50:59;;;;;;;20.77;12.68;;;15.00;1.00;;;;;;10505227;28;20186;-80
2023/04/29 10:56:20;;;;;;;28.95;15.27;;;15.50;1.00;;;;;;10476481;28;20202;-80
2023/04/29 11:01:47;;;;;;;15.68;12.13;;;15.90;1.00;;;;;;10477461;28;20231;-81
2023/04/29 11:07:08;;;;;;;19.15;13.05;;;15.90;1.00;;;;;;10482187;28;20210;-81
2023/04/29 11:12:30;;;;;;;20.10;11.57;;;15.60;1.00;;;;;;10496310;28;20206;-80
2023/04/29 11:17:51;;;;;;;24.40;14.30;;;15.20;1.00;;;;;;10473678;28;20248;-81
2023/04/29 11:23:12;;;;;;;20.63;13.07;;;15.10;1.00;;;;;;10476685;28;20238;-81
2023/04/29 11:28:34;;;;;;;21.00;14.10;;;15.10;1.00;;;;;;10492845;28;20237;-80
2023/04/29 11:33:55;;;;;;;22.27;13.85;;;14.90;1.00;;;;;;10490933;28;20194;-80
2023/04/29 11:39:16;;;;;;;17.80;11.02;;;14.80;1.00;;;;;;10489834;28;20230;-80
2023/04/29 11:44:38;;;;;;;21.70;10.20;;;15.20;1.00;;;;;;10510795;28;20247;-79
2023/04/29 11:50:09;;;;;;;16.65;8.73;;;15.20;1.00;;;;;;10489853;28;20221;-80
2023/04/29 11:55:30;;;;;;;13.70;8.50;;;15.20;1.00;;;;;;10492926;28;20221;-80
2023/04/29 12:00:52;;;;;;;19.50;9.48;;;14.90;1.00;;;;;;10498069;28;20234;-81
2023/04/29 12:06:13;;;;;;;14.38;8.35;;;14.80;1.00;;;;;;10480174;28;20523;-81
2023/04/29 12:11:36;;;;;;;14.45;9.20;;;15.00;21.50;;;;;;10511729;28;20539;-82
2023/04/29 12:16:58;;;;;;;16.77;10.80;;;14.90;32.60;;;;;;10493872;28;20527;-81
2023/04/29 12:26:46;;;;;;;8.65;6.13;;;14.90;1.00;;;;;;10597459;27;20540;-79
2023/04/29 12:32:11;;;;;;;12.13;7.32;;;14.80;1.00;;;;;;10590990;28;20199;-80
2023/04/29 12:37:34;;;;;;;13.50;6.57;;;14.80;1.00;;;;;;10581790;28;20196;-80
2023/04/29 12:42:55;;;;;;;8.65;6.63;;;14.80;1.00;;;;;;10589188;28;20307;-81
2023/04/29 12:48:16;;;;;;;13.30;7.68;;;14.80;1.00;;;;;;10542910;28;20461;-81
2023/04/29 12:53:45;;;;;;;10.05;6.53;;;14.80;1.00;;;;;;10539090;28;20194;-81
2023/04/29 12:59:08;;;;;;;11.57;7.18;;;14.80;1.00;;;;;;10518643;28;20211;-80
2023/04/29 13:04:30;;;;;;;10.55;7.35;;;14.70;1.00;;;;;;10513905;28;20222;-81
2023/04/29 13:09:51;;;;;;;11.18;6.88;;;14.70;3.60;;;;;;10551006;28;20202;-81
2023/04/29 13:15:12;;;;;;;12.77;8.40;;;14.60;6.90;;;;;;10583169;28;20201;-80
2023/04/29 13:20:34;;;;;;;12.63;8.30;;;14.60;23.90;;;;;;10544919;28;20198;-81
2023/04/29 13:26:00;;;;;;;16.58;8.95;;;14.60;34.90;;;;;;10554337;28;20249;-80
2023/04/29 13:31:21;;;;;;;14.40;9.05;;;14.70;29.00;;;;;;10594638;28;20402;-81
2023/04/29 13:36:42;;;;;;;12.43;8.20;;;14.70;16.20;;;;;;10559557;28;20196;-80
2023/04/29 13:42:03;;;;;;;11.55;7.88;;;14.70;16.80;;;;;;10545833;28;20214;-80
2023/04/29 13:47:25;;;;;;;8.30;6.60;;;14.80;74.00;;;;;;10534232;28;20198;-80
2023/04/29 13:52:49;;;;;;;12.52;8.35;;;14.60;99.90;;;;;;10523329;28;20200;-81
2023/04/29 13:58:15;;;;;;;19.80;10.25;;;14.50;99.90;;;;;;10487596;28;20215;-80
2023/04/29 14:03:55;;;;;;;15.45;10.98;;;14.40;99.90;;;;;;10497988;28;20236;-80
2023/04/29 14:09:18;;;;;;;13.73;8.13;;;14.60;99.90;;;;;;10532478;28;20201;-80
2023/04/29 14:14:39;;;;;;;13.25;8.38;;;14.60;99.90;;;;;;10506711;28;20239;-80
2023/04/29 14:20:02;;;;;;;15.50;8.85;;;14.40;99.90;;;;;;10507882;28;20227;-80
2023/04/29 14:25:23;;;;;;;19.70;11.02;;;14.40;1.00;;;;;;10537871;28;20259;-79
2023/04/29 14:30:44;;;;;;;15.20;10.48;;;14.30;1.00;;;;;;10543997;28;20201;-81
2023/04/29 14:36:07;;;;;;;15.23;10.93;;;14.40;1.00;;;;;;10563523;28;20227;-79
2023/04/29 14:41:29;;;;;;;13.10;9.27;;;14.50;1.00;;;;;;10548910;28;20204;-80
2023/04/29 14:46:50;;;;;;;23.67;15.63;;;14.50;1.00;;;;;;10531119;28;20246;-81
2023/04/29 14:52:11;;;;;;;17.63;11.57;;;14.50;1.00;;;;;;10521444;28;20280;-80
2023/04/29 14:57:33;;;;;;;16.98;9.75;;;14.50;1.00;;;;;;10479369;28;20429;-82
2023/04/29 15:02:55;;;;;;;22.38;13.77;;;14.60;1.00;;;;;;10502917;28;20297;-82
2023/04/29 15:08:17;;;;;;;16.77;11.50;;;14.50;1.00;;;;;;10521013;28;20392;-82
2023/04/29 15:13:38;;;;;;;17.85;11.18;;;14.40;1.00;;;;;;10506706;28;20507;-81
2023/04/29 15:19:00;;;;;;;21.50;12.75;;;14.30;1.00;;;;;;10519596;28;20192;-82
2023/04/29 15:24:21;;;;;;;26.30;13.93;;;14.20;1.00;;;;;;10526078;28;20235;-82
2023/04/29 15:29:42;;;;;;;23.05;13.90;;;14.10;1.00;;;;;;10564386;28;20203;-82
2023/04/29 15:35:05;;;;;;;25.08;12.70;;;14.00;1.00;;;;;;10516287;28;20202;-79
2023/04/29 15:40:26;;;;;;;23.38;11.20;;;14.00;1.00;;;;;;10519648;28;20189;-83
2023/04/29 15:45:47;;;;;;;20.33;11.88;;;14.00;1.00;;;;;;10519473;28;20224;-80
2023/04/29 15:51:08;;;;;;;23.90;11.50;;;13.90;31.60;;;;;;10536082;28;20201;-80
2023/04/29 15:56:30;;;;;;;15.65;10.25;;;13.80;99.90;;;;;;10560679;28;20200;-80
2023/04/29 16:01:51;;;;;;;13.38;9.02;;;13.60;99.20;;;;;;10558388;28;20191;-83
2023/04/29 16:07:12;;;;;;;17.85;10.00;;;13.50;99.90;;;;;;10495637;28;20228;-80
2023/04/29 16:12:34;;;;;;;13.95;10.00;;;13.40;99.90;;;;;;10518512;28;20272;-80
2023/04/29 16:17:55;;;;;;;15.27;10.50;;;13.30;99.90;;;;;;10543460;28;20231;-82
2023/04/29 16:23:16;;;;;;;12.73;9.90;;;13.20;99.90;;;;;;10526348;28;20250;-81
2023/04/29 16:28:38;;;;;;;17.02;11.90;;;13.10;99.90;;;;;;10519263;28;20222;-81
2023/04/29 16:33:59;;;;;;;17.00;10.40;;;13.00;99.90;;;;;;10518084;28;20209;-80
2023/04/29 16:39:20;;;;;;;17.27;11.98;;;13.00;99.90;;;;;;10548663;28;20236;-81
2023/04/29 16:44:41;;;;;;;14.50;9.90;;;12.90;99.90;;;;;;10545747;28;20225;-82
2023/04/29 16:50:06;;;;;;;26.02;12.63;;;12.80;99.90;;;;;;10529382;28;20218;-82
2023/04/29 16:55:28;;;;;;;20.65;12.05;;;12.80;99.90;;;;;;10517917;28;20197;-82
2023/04/29 17:00:49;;;;;;;19.38;12.07;;;12.80;99.90;;;;;;10517511;28;20370;-80
2023/04/29 17:06:10;;;;;;;25.40;16.02;;;12.70;99.90;;;;;;10494669;28;20236;-82
2023/04/29 17:11:32;;;;;;;30.23;15.95;;;12.70;99.90;;;;;;10536114;28;20184;-80
2023/04/29 17:16:53;;;;;;;20.05;13.13;;;12.60;99.90;;;;;;10525318;28;20204;-82
2023/04/29 17:22:17;;;;;;;19.38;12.00;;;12.60;99.90;;;;;;10510468;28;20247;-79
2023/04/29 17:27:38;;;;;;;14.38;10.85;;;12.60;99.90;;;;;;10557504;28;20384;-81
2023/04/29 17:33:04;;;;;;;16.42;10.32;;;12.60;99.90;;;;;;10546371;28;20255;-81
2023/04/29 17:38:26;;;;;;;15.05;10.82;;;12.50;99.90;;;;;;10538245;28;20335;-81
2023/04/29 17:43:48;;;;;;;18.52;12.25;;;12.50;99.90;;;;;;10552400;28;20225;-81
2023/04/29 17:49:09;;;;;;;15.13;11.68;;;12.50;99.90;;;;;;10560511;28;20492;-82
2023/04/29 17:54:30;;;;;;;15.70;11.65;;;12.50;99.90;;;;;;10566085;28;20193;-82
2023/04/29 17:59:51;;;;;;;22.70;13.25;;;12.40;99.90;;;;;;10551496;28;20211;-80
2023/04/29 18:05:13;;;;;;;16.45;10.95;;;12.30;99.90;;;;;;10512931;28;20252;-80
2023/04/29 18:10:34;;;;;;;16.25;10.35;;;12.30;99.90;;;;;;10524475;28;20418;-81
2023/04/29 18:15:58;;;;;;;15.02;10.30;;;12.20;99.90;;;;;;10497806;28;20241;-79
2023/04/29 18:21:21;;;;;;;11.48;9.25;;;12.20;99.90;;;;;;10512243;28;20224;-82
2023/04/29 18:26:42;;;;;;;12.48;9.20;;;12.00;96.40;;;;;;10542203;28;20240;-80
2023/04/29 18:32:04;;;;;;;11.98;8.10;;;12.00;96.80;;;;;;10536305;28;20194;-80
2023/04/29 18:37:27;;;;;;;22.33;7.67;;;12.00;93.20;;;;;;10540716;28;20240;-81
2023/04/29 18:42:48;;;;;;;12.18;8.23;;;12.00;92.10;;;;;;10483394;28;20204;-81
2023/04/29 18:48:11;;;;;;;11.93;7.30;;;11.80;91.10;;;;;;10481384;28;20494;-81
2023/04/29 18:53:32;;;;;;;9.73;7.13;;;11.80;92.20;;;;;;10489331;28;20203;-80
2023/04/29 18:58:53;;;;;;;12.68;9.05;;;11.80;93.00;;;;;;10496294;28;20291;-81
2023/04/29 19:04:14;;;;;;;12.20;8.30;;;11.70;92.90;;;;;;10479403;28;20218;-80
2023/04/29 19:09:35;;;;;;;15.00;7.50;;;11.60;87.60;;;;;;10532503;28;20467;-81
2023/04/29 19:14:56;;;;;;;14.65;8.25;;;11.50;92.30;;;;;;10528027;28;20278;-82
2023/04/29 19:20:18;;;;;;;13.87;8.73;;;11.50;91.20;;;;;;10519932;28;20205;-80
2023/04/29 19:25:39;;;;;;;12.83;8.23;;;11.50;89.50;;;;;;10542676;28;20252;-81
2023/04/29 19:31:00;;;;;;;12.95;7.85;;;11.40;80.90;;;;;;10547291;28;20212;-81
2023/04/29 19:36:22;;;;;;;15.33;8.47;;;11.40;80.20;;;;;;10561396;28;20231;-82
2023/04/29 19:41:43;;;;;;;12.63;7.13;;;11.30;66.80;;;;;;10505737;28;20226;-81
2023/04/29 19:47:05;;;;;;;14.87;9.07;;;11.30;70.90;;;;;;10521887;28;20318;-82
2023/04/29 19:52:28;;;;;;;15.57;8.53;;;11.20;69.60;;;;;;10518658;28;20285;-80
2023/04/29 19:57:52;;;;;;;16.90;10.60;;;11.20;75.80;;;;;;10535691;28;20223;-80
2023/04/29 20:03:13;;;;;;;11.17;8.10;;;11.00;81.90;;;;;;10504860;28;20217;-81
2023/04/29 20:08:36;;;;;;;12.00;7.27;;;10.90;83.20;;;;;;10501842;28;20202;-82
2023/04/29 20:13:57;;;;;;;15.43;8.33;;;10.80;78.50;;;;;;10503904;28;20239;-80
2023/04/29 20:19:18;;;;;;;16.27;7.77;;;10.70;71.80;;;;;;10539866;28;20208;-80
2023/04/29 20:24:40;;;;;;;12.30;7.37;;;10.40;70.60;;;;;;10519320;28;20236;-81
2023/04/29 20:30:02;;;;;;;15.33;7.93;;;10.30;72.80;;;;;;10527896;28;20530;-80
2023/04/29 20:35:24;;;;;;;13.87;7.43;;;10.10;75.50;;;;;;10560518;28;20426;-82
2023/04/29 20:40:45;;;;;;;15.23;8.60;;;10.00;77.90;;;;;;10531679;28;20203;-82
2023/04/29 20:46:06;;;;;;;13.90;8.10;;;9.90;81.50;;;;;;10544477;28;20269;-82
2023/04/29 20:51:28;;;;;;;20.30;9.50;;;9.70;83.80;;;;;;10568047;28;20242;-79
2023/04/29 20:56:50;;;;;;;14.10;8.20;;;9.70;85.00;;;;;;10559440;28;21648;-80
2023/04/29 21:02:11;;;;;;;18.13;8.93;;;9.60;86.30;;;;;;10511608;28;20246;-81
2023/04/29 21:07:32;;;;;;;14.63;7.93;;;9.50;88.00;;;;;;10525294;28;20247;-79
2023/04/29 21:12:53;;;;;;;14.27;8.20;;;9.40;89.60;;;;;;10515538;28;20210;-81
2023/04/29 21:18:15;;;;;;;15.13;8.27;;;9.40;90.90;;;;;;10497933;28;20194;-80
2023/04/29 21:23:36;;;;;;;12.93;8.27;;;9.30;91.70;;;;;;10491686;28;20237;-80
2023/04/29 21:28:58;;;;;;;10.93;7.03;;;9.20;92.20;;;;;;10558483;28;20201;-82
2023/04/29 21:34:19;;;;;;;9.60;6.73;;;9.10;93.10;;;;;;10567034;28;20262;-80
2023/04/29 21:39:40;;;;;;;12.83;6.93;;;9.10;93.50;;;;;;10552216;28;20200;-82
2023/04/29 21:45:02;;;;;;;15.43;7.07;;;9.00;94.60;;;;;;10561113;28;20237;-78
2023/04/29 21:50:23;;;;;;;11.43;7.27;;;9.00;94.60;;;;;;10565891;28;20550;-81
2023/04/29 21:55:44;;;;;;;10.57;6.37;;;8.90;95.50;;;;;;10533639;28;20197;-80
2023/04/29 22:01:24;;;;;;;14.47;7.30;;;8.90;94.70;;;;;;10565440;28;20283;-80
2023/04/29 22:06:46;;;;;;;10.73;7.43;;;8.80;95.70;;;;;;10522858;28;20308;-81
2023/04/29 22:12:07;;;;;;;12.47;7.13;;;8.70;96.40;;;;;;10521391;28;20276;-82
2023/04/29 22:17:29;;;;;;;11.17;7.03;;;8.70;96.50;;;;;;10508875;28;20196;-80
2023/04/29 22:22:51;;;;;;;13.80;7.83;;;8.60;97.00;;;;;;10508076;28;20241;-81
2023/04/29 22:28:12;;;;;;;12.87;7.70;;;8.60;98.00;;;;;;10506672;28;20212;-81
2023/04/29 22:33:33;;;;;;;9.67;7.27;;;8.40;98.10;;;;;;10550030;28;20501;-82
2023/04/29 22:38:55;;;;;;;13.13;7.40;;;8.30;98.90;;;;;;10564255;28;20231;-82
2023/04/29 22:44:16;;;;;;;9.97;6.97;;;8.30;99.10;;;;;;10536597;28;20245;-79
2023/04/29 22:49:37;;;;;;;11.97;6.50;;;8.30;99.40;;;;;;10507698;28;20282;-81
2023/04/29 22:54:58;;;;;;;11.20;6.60;;;8.10;99.70;;;;;;10507316;28;20537;-81
2023/04/29 23:00:20;;;;;;;11.77;7.23;;;8.10;99.90;;;;;;10520550;28;20211;-81
2023/04/29 23:05:42;;;;;;;10.60;6.17;;;8.00;99.90;;;;;;10507017;28;20228;-81
2023/04/29 23:11:03;;;;;;;10.70;6.10;;;8.00;99.90;;;;;;10535750;28;20194;-81
2023/04/29 23:16:24;;;;;;;11.67;6.43;;;7.90;99.90;;;;;;10535488;28;20256;-82
2023/04/29 23:21:45;;;;;;;10.20;5.70;;;7.80;99.90;;;;;;10505729;28;20383;-83
2023/04/29 23:27:07;;;;;;;13.23;6.73;;;7.70;99.90;;;;;;10534144;28;20226;-81
2023/04/29 23:32:28;;;;;;;8.40;5.87;;;7.60;99.90;;;;;;10542099;28;20203;-80
2023/04/29 23:37:49;;;;;;;10.07;7.00;;;7.60;99.90;;;;;;10557826;28;20256;-82
2023/04/29 23:43:11;;;;;;;10.40;6.33;;;7.60;99.90;;;;;;10562251;28;20192;-82
2023/04/29 23:48:32;;;;;;;9.37;5.70;;;7.60;99.90;;;;;;10539216;28;20211;-81
2023/04/29 23:53:54;;;;;;;17.20;6.43;;;7.50;99.90;;;;;;10494916;28;20252;-81
2023/04/29 23:59:15;;;;;;;10.10;6.40;;;7.40;99.90;;;;;;10519098;28;20240;-82
